createdAt,value
2023-11-15T00:01:07.718Z,99623.72
2023-11-15T00:03:37.341Z,99623.91
2023-11-15T00:06:10.457Z,99644.13
2023-11-15T00:08:40.334Z,99626.22
2023-11-15T00:11:10.166Z,99639.56
2023-11-15T00:13:39.895Z,99645.78
2023-11-15T00:16:11.399Z,99656.56
2023-11-15T00:18:41.444Z,99657.84
2023-11-15T00:21:13.711Z,99656.16
2023-11-15T00:23:43.566Z,99665.34
2023-11-15T00:26:13.258Z,99672.81
2023-11-15T00:28:51.542Z,99677.44
2023-11-15T00:31:21.212Z,99684.47
2023-11-15T00:33:51.115Z,99686.16
2023-11-15T00:36:23.456Z,99696.56
2023-11-15T00:38:53.565Z,99699.91
2023-11-15T00:41:23.276Z,99700.72
2023-11-15T00:43:52.921Z,99708.81
2023-11-15T00:46:22.522Z,99676.44
2023-11-15T00:48:52.178Z,99713.84
2023-11-15T00:51:24.434Z,99721.94
2023-11-15T00:53:54.090Z,99737.53
2023-11-15T00:56:23.731Z,99744.81
2023-11-15T00:58:55.332Z,99748.78
2023-11-15T01:01:26.658Z,99751.91
2023-11-15T01:03:59.937Z,99756.91
2023-11-15T01:06:32.273Z,99762.72
2023-11-15T01:09:04.431Z,99774.38
2023-11-15T01:11:34.103Z,99771.25
2023-11-15T01:14:04.418Z,99779.56
2023-11-15T01:16:34.152Z,99780.81
2023-11-15T01:19:04.230Z,99794.16
2023-11-15T01:21:36.584Z,99796.84
2023-11-15T01:24:07.134Z,99803.91
2023-11-15T01:26:36.943Z,99802.47
2023-11-15T01:29:06.724Z,99807.25
2023-11-15T01:31:36.441Z,99822.03
2023-11-15T01:34:07.356Z,99823.25
2023-11-15T01:36:39.673Z,99821.41
2023-11-15T01:39:17.444Z,99808.91
2023-11-15T01:41:50.051Z,99823.06
2023-11-15T01:44:20.371Z,99819.75
2023-11-15T01:46:52.049Z,99831.34
2023-11-15T01:49:25.013Z,99843.44
2023-11-15T01:51:58.295Z,99837.59
2023-11-15T01:54:28.317Z,99847.19
2023-11-15T01:56:58.004Z,99833.00
2023-11-15T01:59:27.753Z,99829.91
2023-11-15T02:01:57.718Z,99856.75
2023-11-15T02:04:27.361Z,99817.81
2023-11-15T02:06:59.609Z,99864.22
2023-11-15T02:09:30.900Z,99868.41
2023-11-15T02:12:00.822Z,99863.81
2023-11-15T02:14:32.005Z,99870.44
2023-11-15T02:17:01.865Z,99888.78
2023-11-15T02:19:31.507Z,99890.22
2023-11-15T02:22:04.729Z,99891.91
2023-11-15T02:24:36.938Z,99902.72
2023-11-15T02:27:07.208Z,99911.69
2023-11-15T02:29:36.945Z,99900.84
2023-11-15T02:32:07.181Z,99913.31
2023-11-15T02:34:36.989Z,99924.97
2023-11-15T02:37:06.948Z,99930.19
2023-11-15T02:39:39.236Z,99933.72
2023-11-15T02:42:09.210Z,99937.47
2023-11-15T02:44:38.916Z,99946.41
2023-11-15T02:47:08.811Z,99943.91
2023-11-15T02:49:38.631Z,99948.25
2023-11-15T02:52:09.265Z,99958.03
2023-11-15T02:54:41.461Z,99967.38
2023-11-15T02:57:12.218Z,99961.31
2023-11-15T02:59:41.904Z,99977.38
2023-11-15T03:02:11.702Z,99976.13
2023-11-15T03:04:42.330Z,99975.91
2023-11-15T03:07:12.030Z,99986.09
2023-11-15T03:09:44.232Z,99987.94
2023-11-15T03:12:13.960Z,99998.34
2023-11-15T03:14:43.660Z,99993.34
2023-11-15T03:17:18.358Z,100000.19
2023-11-15T03:19:48.298Z,100005.78
2023-11-15T03:22:18.882Z,99994.78
2023-11-15T03:24:51.408Z,100017.47
2023-11-15T03:27:21.596Z,100011.84
2023-11-15T03:29:51.476Z,100017.03
2023-11-15T03:32:21.274Z,100019.94
2023-11-15T03:34:51.239Z,100024.47
2023-11-15T03:37:20.907Z,100021.34
2023-11-15T03:39:54.326Z,100024.63
2023-11-15T03:42:24.656Z,100023.41
2023-11-15T03:44:54.398Z,100022.97
2023-11-15T03:47:24.396Z,100040.66
2023-11-15T03:49:54.111Z,100058.22
2023-11-15T03:52:23.799Z,100047.75
2023-11-15T03:54:56.229Z,100072.19
2023-11-15T03:57:26.044Z,100070.31
2023-11-15T04:00:00.523Z,100070.09
2023-11-15T04:02:31.028Z,100066.31
2023-11-15T04:05:00.952Z,100078.47
2023-11-15T04:07:30.792Z,100088.66
2023-11-15T04:10:03.470Z,100089.81
2023-11-15T04:12:33.004Z,100099.47
2023-11-15T04:15:05.034Z,100105.34
2023-11-15T04:17:34.992Z,100109.78
2023-11-15T04:20:05.942Z,100111.88
2023-11-15T04:22:35.605Z,100117.78
2023-11-15T04:25:09.598Z,100121.78
2023-11-15T04:27:39.315Z,100126.56
2023-11-15T04:30:11.293Z,100125.91
2023-11-15T04:32:41.143Z,100128.88
2023-11-15T04:35:12.181Z,100137.09
2023-11-15T04:37:42.096Z,100154.47
2023-11-15T04:40:15.305Z,100145.72
2023-11-15T04:42:44.873Z,100158.84
2023-11-15T04:45:14.569Z,100166.34
2023-11-15T04:47:44.370Z,100156.91
2023-11-15T04:50:14.012Z,100155.81
2023-11-15T04:52:44.339Z,100155.50
2023-11-15T04:55:16.695Z,100168.75
2023-11-15T04:57:46.811Z,100167.47
2023-11-15T05:00:17.615Z,100160.97
2023-11-15T05:02:47.394Z,100168.44
2023-11-15T05:05:17.364Z,100179.75
2023-11-15T05:07:47.183Z,100179.50
2023-11-15T05:10:20.941Z,100184.81
2023-11-15T05:12:50.668Z,100194.78
2023-11-15T05:15:20.361Z,100210.41
2023-11-15T05:17:50.230Z,100199.38
2023-11-15T05:20:19.923Z,100213.56
2023-11-15T05:22:49.594Z,100207.94
2023-11-15T05:25:22.527Z,100209.50
2023-11-15T05:27:52.629Z,100211.06
2023-11-15T05:30:23.146Z,100215.91
2023-11-15T05:32:52.826Z,100219.63
2023-11-15T05:35:23.267Z,100210.25
2023-11-15T05:37:53.052Z,100223.47
2023-11-15T05:40:25.388Z,100230.09
2023-11-15T05:42:54.985Z,100237.81
2023-11-15T05:45:26.905Z,100249.84
2023-11-15T05:47:56.573Z,100247.50
2023-11-15T05:50:26.260Z,100256.47
2023-11-15T05:52:56.439Z,100252.91
2023-11-15T05:55:29.801Z,100259.34
2023-11-15T05:57:59.491Z,100261.41
2023-11-15T06:00:29.159Z,100259.53
2023-11-15T06:02:58.870Z,100266.66
2023-11-15T06:05:30.690Z,100272.91
2023-11-15T06:08:03.433Z,100267.25
2023-11-15T06:10:37.408Z,100291.81
2023-11-15T06:13:07.956Z,100274.91
2023-11-15T06:15:37.515Z,100294.69
2023-11-15T06:18:08.120Z,100288.47
2023-11-15T06:20:39.617Z,100290.13
2023-11-15T06:23:10.151Z,100276.88
2023-11-15T06:25:45.235Z,100288.28
2023-11-15T06:28:15.218Z,100291.56
2023-11-15T06:30:46.547Z,100292.97
2023-11-15T06:33:17.222Z,100289.66
2023-11-15T06:35:47.434Z,100290.53
2023-11-15T06:38:17.593Z,100287.75
2023-11-15T06:40:50.406Z,100301.72
2023-11-15T06:43:20.197Z,100319.41
2023-11-15T06:45:49.776Z,100318.38
2023-11-15T06:48:20.304Z,100319.78
2023-11-15T06:50:50.129Z,100328.44
2023-11-15T06:53:19.711Z,100333.94
2023-11-15T06:55:54.102Z,100331.31
2023-11-15T06:58:23.686Z,100339.03
2023-11-15T07:00:53.669Z,100340.53
2023-11-15T07:03:23.720Z,100344.75
2023-11-15T07:05:53.493Z,100349.69
2023-11-15T07:08:23.403Z,100354.69
2023-11-15T07:10:56.136Z,100355.06
2023-11-15T07:13:25.740Z,100363.25
2023-11-15T07:15:55.358Z,100354.59
2023-11-15T07:18:28.189Z,100364.06
2023-11-15T07:20:58.619Z,100366.41
2023-11-15T07:23:28.237Z,100369.94
2023-11-15T07:26:00.445Z,100370.63
2023-11-15T07:28:30.875Z,100370.25
2023-11-15T07:31:00.850Z,100366.22
2023-11-15T07:33:32.210Z,100362.13
2023-11-15T07:36:01.938Z,100360.91
2023-11-15T07:38:32.293Z,100367.72
2023-11-15T07:41:04.432Z,100369.41
2023-11-15T07:43:33.998Z,100375.34
2023-11-15T07:46:03.564Z,100372.47
2023-11-15T07:48:33.257Z,100375.34
2023-11-15T07:51:04.490Z,100387.09
2023-11-15T07:53:34.155Z,100400.09
2023-11-15T07:56:07.577Z,100396.28
2023-11-15T07:58:37.251Z,100407.47
2023-11-15T08:01:09.731Z,100414.72
2023-11-15T08:03:40.390Z,100421.91
2023-11-15T08:06:11.222Z,100429.44
2023-11-15T08:08:41.135Z,100430.66
2023-11-15T08:11:13.969Z,100438.00
2023-11-15T08:13:43.444Z,100437.53
2023-11-15T08:16:14.119Z,100435.03
2023-11-15T08:18:43.850Z,100438.59
2023-11-15T08:21:14.397Z,100448.25
2023-11-15T08:23:44.774Z,100449.53
2023-11-15T08:26:22.522Z,100449.84
2023-11-15T08:28:52.232Z,100448.41
2023-11-15T08:31:24.855Z,100452.16
2023-11-15T08:33:54.860Z,100454.97
2023-11-15T08:36:24.526Z,100456.44
2023-11-15T08:38:54.150Z,100466.03
2023-11-15T08:41:26.433Z,100471.34
2023-11-15T08:43:56.060Z,100481.97
2023-11-15T08:46:28.134Z,100465.19
2023-11-15T08:48:57.832Z,100453.44
2023-11-15T08:51:27.508Z,100470.03
2023-11-15T08:53:58.723Z,100467.72
2023-11-15T08:56:32.759Z,100478.72
2023-11-15T08:59:04.060Z,100475.06
2023-11-15T09:01:33.962Z,100482.94
2023-11-15T09:04:03.780Z,100484.78
2023-11-15T09:06:33.594Z,100487.13
2023-11-15T09:09:05.531Z,100475.56
2023-11-15T09:11:38.260Z,100492.69
2023-11-15T09:14:09.467Z,100490.44
2023-11-15T09:16:39.129Z,100494.75
2023-11-15T09:19:11.762Z,100477.59
2023-11-15T09:21:43.397Z,100506.59
2023-11-15T09:24:13.374Z,100504.72
2023-11-15T09:26:45.621Z,100512.00
2023-11-15T09:29:15.466Z,100513.69
2023-11-15T09:31:45.503Z,100518.63
2023-11-15T09:34:15.414Z,100515.00
2023-11-15T09:36:45.238Z,100530.53
2023-11-15T09:39:17.823Z,100524.47
2023-11-15T09:41:57.210Z,100529.78
2023-11-15T09:44:27.816Z,100512.66
2023-11-15T09:46:59.378Z,100526.63
2023-11-15T09:49:31.017Z,100510.97
2023-11-15T09:52:01.978Z,100526.25
2023-11-15T09:54:35.042Z,100520.41
2023-11-15T09:57:07.842Z,100534.94
2023-11-15T09:59:37.986Z,100503.50
2023-11-15T10:02:07.732Z,100522.91
2023-11-15T10:04:37.358Z,100496.88
2023-11-15T10:07:08.680Z,100528.38
2023-11-15T10:09:41.053Z,100516.56
2023-11-15T10:12:13.861Z,100528.94
2023-11-15T10:14:55.308Z,100535.06
2023-11-15T10:17:41.839Z,100534.88
2023-11-15T10:20:23.935Z,100521.47
2023-11-15T10:22:54.434Z,100536.19
2023-11-15T10:25:27.031Z,100536.66
2023-11-15T10:28:04.835Z,100535.41
2023-11-15T10:30:35.173Z,100530.09
2023-11-15T10:33:11.894Z,100526.38
2023-11-15T10:35:42.414Z,100530.94
2023-11-15T10:38:16.220Z,100528.63
2023-11-15T10:40:48.103Z,100523.19
2023-11-15T10:43:20.419Z,100530.16
2023-11-15T10:45:51.668Z,100535.59
2023-11-15T10:48:24.777Z,100526.16
2023-11-15T10:50:59.494Z,100532.50
2023-11-15T10:53:31.413Z,100536.94
2023-11-15T10:56:04.559Z,100531.84
2023-11-15T10:58:40.743Z,100530.56
2023-11-15T11:01:13.794Z,100514.41
2023-11-15T11:03:44.045Z,100531.97
2023-11-15T11:06:23.964Z,100519.03
2023-11-15T11:09:03.606Z,100530.41
2023-11-15T11:11:42.040Z,100527.63
2023-11-15T11:14:22.622Z,100519.22
2023-11-15T11:16:52.585Z,100535.84
2023-11-15T11:19:23.734Z,100533.53
2023-11-15T11:22:13.523Z,100531.03
2023-11-15T11:24:47.733Z,100531.88
2023-11-15T11:27:35.070Z,100536.50
2023-11-15T11:30:22.388Z,100528.72
2023-11-15T11:32:52.511Z,100528.19
2023-11-15T11:35:32.533Z,100532.13
2023-11-15T11:38:05.343Z,100528.56
2023-11-15T11:40:40.639Z,100534.84
2023-11-15T11:43:23.608Z,100534.75
2023-11-15T11:45:56.313Z,100537.00
2023-11-15T11:48:28.018Z,100539.59
2023-11-15T11:51:05.085Z,100527.47
2023-11-15T11:53:39.507Z,100527.56
2023-11-15T11:56:15.249Z,100541.16
2023-11-15T11:58:46.138Z,100534.91
2023-11-15T12:01:18.467Z,100528.66
2023-11-15T12:04:02.767Z,100537.41
2023-11-15T12:06:34.238Z,100516.91
2023-11-15T12:09:03.947Z,100533.88
2023-11-15T12:11:33.633Z,100538.06
2023-11-15T12:14:05.412Z,100544.31
2023-11-15T12:16:40.610Z,100535.75
2023-11-15T12:19:13.949Z,100552.09
2023-11-15T12:21:47.460Z,100558.56
2023-11-15T12:24:23.869Z,100533.81
2023-11-15T12:26:53.968Z,100556.25
2023-11-15T12:29:25.879Z,100529.47
2023-11-15T12:32:01.097Z,100543.34
2023-11-15T12:34:31.472Z,100557.13
2023-11-15T12:37:01.832Z,100541.91
2023-11-15T12:39:39.400Z,100558.28
2023-11-15T12:42:09.220Z,100529.97
2023-11-15T12:44:47.258Z,100564.00
2023-11-15T12:47:19.900Z,100508.75
2023-11-15T12:49:49.700Z,100547.13
2023-11-15T12:52:19.472Z,100557.19
2023-11-15T12:54:59.124Z,100548.50
2023-11-15T12:57:29.446Z,100530.88
2023-11-15T12:59:59.119Z,100549.13
2023-11-15T13:02:37.745Z,100560.41
2023-11-15T13:05:10.267Z,100546.28
2023-11-15T13:07:40.434Z,100562.66
2023-11-15T13:10:11.991Z,100562.03
2023-11-15T13:12:41.650Z,100560.09
2023-11-15T13:15:19.007Z,100557.69
2023-11-15T13:17:52.657Z,100562.09
2023-11-15T13:20:22.406Z,100573.09
2023-11-15T13:22:52.072Z,100556.25
2023-11-15T13:25:21.699Z,100575.19
2023-11-15T13:27:51.738Z,100573.50
2023-11-15T13:30:21.578Z,100583.94
2023-11-15T13:32:53.997Z,100571.63
2023-11-15T13:35:23.728Z,100577.75
2023-11-15T13:37:53.338Z,100579.44
2023-11-15T13:40:22.981Z,100568.63
2023-11-15T13:42:53.277Z,100575.75
2023-11-15T13:45:24.347Z,100566.69
2023-11-15T13:47:58.117Z,100575.19
2023-11-15T13:50:27.901Z,100569.72
2023-11-15T13:52:57.552Z,100575.59
2023-11-15T13:55:29.327Z,100584.34
2023-11-15T13:57:59.046Z,100571.78
2023-11-15T14:00:34.776Z,100587.03
2023-11-15T14:03:09.525Z,100582.94
2023-11-15T14:05:42.639Z,100561.50
2023-11-15T14:08:12.339Z,100586.47
2023-11-15T14:10:43.820Z,100542.78
2023-11-15T14:13:13.901Z,100600.13
2023-11-15T14:15:45.732Z,100573.13
2023-11-15T14:18:18.252Z,100582.47
2023-11-15T14:20:49.390Z,100599.03
2023-11-15T14:23:20.061Z,100607.00
2023-11-15T14:25:49.646Z,100604.06
2023-11-15T14:28:20.244Z,100603.22
2023-11-15T14:30:49.969Z,100614.44
2023-11-15T14:33:22.294Z,100596.31
2023-11-15T14:35:52.057Z,100621.47
2023-11-15T14:38:21.686Z,100595.22
2023-11-15T14:40:51.335Z,100618.44
2023-11-15T14:43:21.012Z,100630.94
2023-11-15T14:45:51.558Z,100621.16
2023-11-15T14:48:23.923Z,100608.88
2023-11-15T14:50:53.810Z,100625.38
2023-11-15T14:53:41.257Z,100631.81
2023-11-15T14:56:11.450Z,100626.22
2023-11-15T14:58:41.060Z,100647.50
2023-11-15T15:01:10.715Z,100647.78
2023-11-15T15:03:43.345Z,100664.50
2023-11-15T15:06:13.924Z,100641.75
2023-11-15T15:08:44.562Z,100652.91
2023-11-15T15:11:14.330Z,100659.53
2023-11-15T15:13:43.919Z,100665.06
2023-11-15T15:16:14.808Z,100639.44
2023-11-15T15:18:47.072Z,100656.50
2023-11-15T15:21:16.678Z,100662.75
2023-11-15T15:23:46.543Z,100673.75
2023-11-15T15:26:19.620Z,100661.72
2023-11-15T15:28:55.142Z,100651.75
2023-11-15T15:31:24.938Z,100682.72
2023-11-15T15:33:57.172Z,100687.44
2023-11-15T15:36:26.810Z,100682.41
2023-11-15T15:38:56.436Z,100658.69
2023-11-15T15:41:28.649Z,100659.66
2023-11-15T15:43:58.268Z,100678.78
2023-11-15T15:46:27.932Z,100684.06
2023-11-15T15:49:00.235Z,100691.22
2023-11-15T15:51:30.020Z,100681.16
2023-11-15T15:54:00.086Z,100684.50
2023-11-15T15:56:30.832Z,100696.53
2023-11-15T15:59:02.373Z,100679.34
2023-11-15T16:01:32.605Z,100705.53
2023-11-15T16:04:05.005Z,100679.78
2023-11-15T16:06:36.026Z,100697.56
2023-11-15T16:09:05.741Z,100714.81
2023-11-15T16:11:35.357Z,100671.97
2023-11-15T16:14:06.344Z,100684.94
2023-11-15T16:16:35.977Z,100708.13
2023-11-15T16:19:08.279Z,100693.84
2023-11-15T16:21:37.926Z,100706.16
2023-11-15T16:24:10.039Z,100690.22
2023-11-15T16:26:40.270Z,100702.53
2023-11-15T16:29:10.229Z,100674.13
2023-11-15T16:31:39.813Z,100684.94
2023-11-15T16:34:12.102Z,100709.09
2023-11-15T16:36:42.038Z,100718.75
2023-11-15T16:39:14.456Z,100710.41
2023-11-15T16:41:52.039Z,100687.91
2023-11-15T16:44:22.806Z,100705.44
2023-11-15T16:46:53.370Z,100702.53
2023-11-15T16:49:26.272Z,100704.16
2023-11-15T16:51:56.971Z,100697.63
2023-11-15T16:54:27.061Z,100716.81
2023-11-15T16:56:59.117Z,100700.84
2023-11-15T16:59:29.197Z,100684.91
2023-11-15T17:01:59.223Z,100719.72
2023-11-15T17:04:31.996Z,100702.38
2023-11-15T17:07:01.494Z,100715.44
2023-11-15T17:09:31.897Z,100722.72
2023-11-15T17:12:01.624Z,100697.38
2023-11-15T17:14:32.571Z,100721.72
2023-11-15T17:17:03.546Z,100713.81
2023-11-15T17:19:35.767Z,100718.38
2023-11-15T17:22:06.365Z,100712.84
2023-11-15T17:24:35.934Z,100715.19
2023-11-15T17:27:05.585Z,100726.31
2023-11-15T17:29:35.681Z,100718.75
2023-11-15T17:32:06.277Z,100716.69
2023-11-15T17:34:38.742Z,100718.22
2023-11-15T17:37:08.442Z,100725.47
2023-11-15T17:39:38.001Z,100720.44
2023-11-15T17:42:08.745Z,100711.28
2023-11-15T17:44:38.953Z,100682.22
2023-11-15T17:47:08.756Z,100720.91
2023-11-15T17:49:40.888Z,100702.25
2023-11-15T17:52:11.369Z,100711.63
2023-11-15T17:54:41.001Z,100720.00
2023-11-15T17:57:10.584Z,100723.03
2023-11-15T17:59:42.775Z,100727.25
2023-11-15T18:02:13.460Z,100714.13
2023-11-15T18:04:46.063Z,100696.28
2023-11-15T18:07:15.754Z,100730.22
2023-11-15T18:09:45.294Z,100722.31
2023-11-15T18:12:14.992Z,100701.09
2023-11-15T18:14:44.668Z,100720.91
2023-11-15T18:17:15.010Z,100728.38
2023-11-15T18:19:47.174Z,100711.59
2023-11-15T18:22:16.748Z,100710.94
2023-11-15T18:24:46.394Z,100704.69
2023-11-15T18:27:16.168Z,100708.69
2023-11-15T18:29:45.789Z,100708.47
2023-11-15T18:32:15.576Z,100719.78
2023-11-15T18:34:47.725Z,100716.91
2023-11-15T18:37:17.322Z,100700.25
2023-11-15T18:39:46.876Z,100725.03
2023-11-15T18:42:16.858Z,100704.72
2023-11-15T18:44:47.249Z,100719.47
2023-11-15T18:47:17.248Z,100698.63
2023-11-15T18:49:50.279Z,100728.31
2023-11-15T18:52:21.548Z,100719.16
2023-11-15T18:54:51.470Z,100722.53
2023-11-15T18:57:23.259Z,100716.47
2023-11-15T18:59:54.698Z,100708.44
2023-11-15T19:02:26.144Z,100716.34
2023-11-15T19:04:58.514Z,100716.47
2023-11-15T19:07:28.133Z,100717.50
2023-11-15T19:09:58.933Z,100712.47
2023-11-15T19:12:28.650Z,100692.66
2023-11-15T19:14:58.338Z,100716.81
2023-11-15T19:17:28.064Z,100713.19
2023-11-15T19:20:01.901Z,100714.47
2023-11-15T19:22:31.523Z,100723.25
2023-11-15T19:25:01.168Z,100729.97
2023-11-15T19:27:30.792Z,100720.84
2023-11-15T19:30:00.429Z,100714.44
2023-11-15T19:32:30.602Z,100697.78
2023-11-15T19:35:02.871Z,100711.13
2023-11-15T19:37:33.731Z,100718.50
2023-11-15T19:40:08.510Z,100721.88
2023-11-15T19:42:38.164Z,100687.78
2023-11-15T19:45:12.672Z,100701.69
2023-11-15T19:47:44.032Z,100713.75
2023-11-15T19:50:17.042Z,100715.28
2023-11-15T19:52:46.909Z,100699.59
2023-11-15T19:55:16.906Z,100705.66
2023-11-15T19:57:46.598Z,100704.94
2023-11-15T20:00:18.110Z,100711.66
2023-11-15T20:02:48.369Z,100716.34
2023-11-15T20:05:21.392Z,100710.09
2023-11-15T20:07:51.074Z,100717.06
2023-11-15T20:10:20.810Z,100700.88
2023-11-15T20:12:50.457Z,100700.69
2023-11-15T20:15:20.202Z,100693.25
2023-11-15T20:17:49.866Z,100713.56
2023-11-15T20:20:24.134Z,100709.00
2023-11-15T20:22:55.760Z,100703.81
2023-11-15T20:25:26.182Z,100702.84
2023-11-15T20:27:55.770Z,100690.81
2023-11-15T20:30:27.084Z,100700.25
2023-11-15T20:32:57.509Z,100715.56
2023-11-15T20:35:29.789Z,100709.50
2023-11-15T20:37:59.895Z,100710.69
2023-11-15T20:40:30.536Z,100712.03
2023-11-15T20:43:01.585Z,100714.53
2023-11-15T20:45:31.316Z,100719.66
2023-11-15T20:48:01.421Z,100699.41
2023-11-15T20:50:33.695Z,100690.94
2023-11-15T20:53:05.018Z,100696.19
2023-11-15T20:55:35.160Z,100699.34
2023-11-15T20:58:07.861Z,100677.19
2023-11-15T21:00:40.313Z,100695.47
2023-11-15T21:03:11.273Z,100704.41
2023-11-15T21:05:44.894Z,100695.63
2023-11-15T21:08:14.625Z,100699.00
2023-11-15T21:10:44.979Z,100672.59
2023-11-15T21:13:15.848Z,100679.66
2023-11-15T21:15:47.102Z,100676.22
2023-11-15T21:18:17.275Z,100711.59
2023-11-15T21:20:49.602Z,100694.53
2023-11-15T21:23:19.720Z,100698.91
2023-11-15T21:25:49.291Z,100683.44
2023-11-15T21:28:18.930Z,100699.94
2023-11-15T21:30:48.660Z,100681.16
2023-11-15T21:33:18.400Z,100702.97
2023-11-15T21:35:52.901Z,100689.13
2023-11-15T21:38:22.934Z,100679.03
2023-11-15T21:40:52.620Z,100692.88
2023-11-15T21:43:23.952Z,100680.00
2023-11-15T21:45:53.602Z,100677.03
2023-11-15T21:48:24.099Z,100660.38
2023-11-15T21:50:56.725Z,100686.63
2023-11-15T21:53:26.407Z,100668.91
2023-11-15T21:55:59.008Z,100666.22
2023-11-15T21:58:28.722Z,100670.19
2023-11-15T22:00:58.311Z,100670.53
2023-11-15T22:03:28.368Z,100646.34
2023-11-15T22:06:00.617Z,100668.66
2023-11-15T22:08:33.167Z,100661.69
2023-11-15T22:11:04.696Z,100655.44
2023-11-15T22:13:34.394Z,100650.78
2023-11-15T22:16:04.071Z,100664.09
2023-11-15T22:18:33.860Z,100626.38
2023-11-15T22:21:07.734Z,100667.91
2023-11-15T22:23:37.428Z,100653.13
2023-11-15T22:26:08.994Z,100661.50
2023-11-15T22:28:38.609Z,100664.56
2023-11-15T22:31:08.581Z,100651.06
2023-11-15T22:33:38.206Z,100656.56
2023-11-15T22:36:11.218Z,100626.69
2023-11-15T22:38:41.042Z,100651.53
2023-11-15T22:41:10.729Z,100652.91
2023-11-15T22:43:40.611Z,100620.81
2023-11-15T22:46:10.365Z,100650.88
2023-11-15T22:48:40.171Z,100651.16
2023-11-15T22:51:12.551Z,100652.28
2023-11-15T22:53:42.521Z,100637.13
2023-11-15T22:56:12.620Z,100664.19
2023-11-15T22:58:42.279Z,100640.09
2023-11-15T23:01:13.202Z,100649.75
2023-11-15T23:03:43.380Z,100621.75
2023-11-15T23:06:15.838Z,100622.59
2023-11-15T23:08:45.721Z,100611.97
2023-11-15T23:11:15.804Z,100654.03
2023-11-15T23:13:46.877Z,100628.00
2023-11-15T23:16:16.665Z,100640.25
2023-11-15T23:18:46.334Z,100634.44
2023-11-15T23:21:20.476Z,100648.47
2023-11-15T23:23:50.117Z,100625.75
2023-11-15T23:26:19.754Z,100647.34
2023-11-15T23:28:49.394Z,100637.06
2023-11-15T23:31:21.541Z,100627.34
2023-11-15T23:33:51.286Z,100643.53
2023-11-15T23:36:23.701Z,100627.38
2023-11-15T23:38:53.867Z,100642.22
2023-11-15T23:41:24.441Z,100652.38
2023-11-15T23:43:56.281Z,100627.94
2023-11-15T23:46:25.914Z,100640.25
2023-11-15T23:48:56.930Z,100637.66
2023-11-15T23:51:29.296Z,100632.13
2023-11-15T23:53:58.941Z,100641.19
2023-11-15T23:56:28.566Z,100634.56
2023-11-15T23:58:58.694Z,100635.97
